Time;durP1;ratioP1;P1;durP2;ratioP2;P2;SDS_P1;SDS_P2;PMS_P1;PMS_P2;Temp;Humidity;BMP_temperature;BMP_pressure;BME280_temperature;BME280_humidity;BME280_pressure;Samples;Min_cycle;Max_cycle;Signal;HPM_P1;HPM_P2
2022/04/04 00:00:08;;;;;;;6.78;2.63;;;3.00;99.90;;;;;;5094932;28;20050;-80
2022/04/04 00:02:33;;;;;;;3.88;2.50;;;3.00;99.90;;;;;;5094731;28;20051;-80
2022/04/04 00:04:59;;;;;;;7.85;3.40;;;3.00;99.90;;;;;;5074697;28;20403;-80
2022/04/04 00:07:25;;;;;;;3.40;2.47;;;3.00;99.90;;;;;;5074998;28;20131;-80
2022/04/04 00:09:52;;;;;;;4.85;2.53;;;3.00;99.90;;;;;;5093602;28;20085;-80
2022/04/04 00:12:18;;;;;;;3.30;3.00;;;3.00;99.90;;;;;;5113626;28;20046;-80
2022/04/04 00:14:44;;;;;;;4.63;2.40;;;3.00;99.90;;;;;;5095052;28;20035;-80
2022/04/04 00:17:11;;;;;;;6.25;2.88;;;3.00;99.90;;;;;;5094187;28;20051;-80
2022/04/04 00:19:36;;;;;;;5.18;2.58;;;3.00;99.90;;;;;;5112544;28;20048;-80
2022/04/04 00:22:03;;;;;;;6.97;2.90;;;3.00;99.90;;;;;;5112918;28;20047;-80
2022/04/04 00:24:29;;;;;;;4.75;2.70;;;3.00;99.90;;;;;;5112593;28;20032;-80
2022/04/04 00:26:55;;;;;;;10.18;3.20;;;3.00;99.90;;;;;;5095032;28;20050;-79
2022/04/04 00:29:21;;;;;;;6.47;3.15;;;3.00;99.90;;;;;;5112076;28;20119;-80
2022/04/04 00:31:46;;;;;;;6.10;2.80;;;3.00;99.90;;;;;;5113342;28;20039;-79
2022/04/04 00:34:12;;;;;;;4.88;2.38;;;3.00;99.90;;;;;;5112513;28;20058;-80
2022/04/04 00:36:39;;;;;;;4.93;2.80;;;3.00;99.90;;;;;;5110627;28;20047;-80
2022/04/04 00:39:05;;;;;;;7.70;3.33;;;3.10;99.90;;;;;;5112877;28;20044;-80
2022/04/04 00:41:31;;;;;;;4.75;3.03;;;3.10;99.90;;;;;;5095174;28;20048;-80
2022/04/04 00:43:57;;;;;;;8.35;3.08;;;3.10;99.90;;;;;;5092321;28;20055;-80
2022/04/04 00:46:22;;;;;;;6.70;3.25;;;3.10;99.90;;;;;;5112920;28;20478;-80
2022/04/04 00:48:48;;;;;;;6.97;3.40;;;3.10;99.90;;;;;;5092817;28;20043;-80
2022/04/04 00:51:15;;;;;;;7.65;3.15;;;3.10;99.90;;;;;;5070694;28;1170643;-80
2022/04/04 00:53:41;;;;;;;5.53;3.85;;;3.10;99.90;;;;;;5112682;28;20056;-79
2022/04/04 00:56:08;;;;;;;6.53;3.17;;;3.10;99.90;;;;;;5113797;28;20130;-79
2022/04/04 00:58:38;;;;;;;6.85;4.25;;;3.10;99.90;;;;;;5094537;28;20039;-80
2022/04/04 01:01:04;;;;;;;5.78;3.53;;;3.10;99.90;;;;;;5113813;28;20046;-79
2022/04/04 01:03:30;;;;;;;5.72;3.00;;;3.20;99.90;;;;;;5113388;28;20035;-79
2022/04/04 01:05:58;;;;;;;4.93;3.60;;;3.20;99.90;;;;;;5094242;28;20058;-79
2022/04/04 01:08:24;;;;;;;7.28;3.97;;;3.20;99.90;;;;;;5112872;28;20078;-80
2022/04/04 01:10:50;;;;;;;6.90;4.38;;;3.20;99.90;;;;;;5113557;28;20483;-79
2022/04/04 01:13:16;;;;;;;6.72;3.97;;;3.30;99.90;;;;;;5094208;28;20497;-80
2022/04/04 01:15:43;;;;;;;6.10;5.00;;;3.30;99.90;;;;;;5113032;28;20063;-79
2022/04/04 01:18:09;;;;;;;11.82;4.90;;;3.30;99.90;;;;;;5095058;28;20101;-80
2022/04/04 01:20:36;;;;;;;9.73;5.47;;;3.30;99.90;;;;;;5092889;28;20067;-79
2022/04/04 01:23:04;;;;;;;9.68;5.32;;;3.40;99.90;;;;;;5112387;28;20081;-79
2022/04/04 01:25:32;;;;;;;9.27;6.25;;;3.40;99.90;;;;;;5094219;28;20094;-79
2022/04/04 01:28:00;;;;;;;9.13;5.80;;;3.40;99.90;;;;;;5113169;28;20103;-79
2022/04/04 01:30:26;;;;;;;13.20;7.47;;;3.50;99.90;;;;;;5095407;28;20049;-79
2022/04/04 01:32:52;;;;;;;14.50;6.75;;;3.50;99.90;;;;;;5077044;28;20055;-79
2022/04/04 01:35:20;;;;;;;15.60;7.55;;;3.50;99.90;;;;;;5113538;28;20043;-79
2022/04/04 01:37:47;;;;;;;11.73;7.43;;;3.60;99.90;;;;;;5112976;28;20043;-79
2022/04/04 01:40:12;;;;;;;10.88;7.53;;;3.60;99.90;;;;;;5112554;28;20039;-79
2022/04/04 01:42:39;;;;;;;14.65;8.82;;;3.60;99.90;;;;;;5094776;28;20383;-79
2022/04/04 01:45:09;;;;;;;13.32;9.85;;;3.60;99.90;;;;;;5077793;28;20040;-78
2022/04/04 01:47:35;;;;;;;10.75;8.02;;;3.60;99.90;;;;;;5094115;28;20054;-79
2022/04/04 01:50:01;;;;;;;11.23;8.15;;;3.70;99.90;;;;;;5116934;28;20046;-79
2022/04/04 01:52:27;;;;;;;13.50;9.10;;;3.70;99.90;;;;;;5116677;28;20104;-79
2022/04/04 01:54:53;;;;;;;13.10;9.00;;;3.70;99.90;;;;;;5097411;28;20043;-79
2022/04/04 01:57:19;;;;;;;9.75;8.13;;;3.70;99.90;;;;;;5098252;28;20047;-79
2022/04/04 01:59:45;;;;;;;13.90;9.43;;;3.70;99.90;;;;;;5116578;28;20039;-79
2022/04/04 02:02:11;;;;;;;15.88;9.63;;;3.70;99.90;;;;;;5097631;28;20047;-80
2022/04/04 02:04:37;;;;;;;13.18;9.43;;;3.80;99.90;;;;;;5098105;28;20050;-78
2022/04/04 02:07:05;;;;;;;14.43;10.57;;;3.80;99.90;;;;;;5116589;28;20051;-79
2022/04/04 02:09:32;;;;;;;14.32;8.90;;;3.80;99.90;;;;;;5079747;28;20083;-78
2022/04/04 02:11:58;;;;;;;13.18;9.98;;;3.90;99.90;;;;;;5098179;28;20046;-79
2022/04/04 02:14:24;;;;;;;15.20;9.98;;;3.90;99.90;;;;;;5116256;28;20040;-78
2022/04/04 02:16:50;;;;;;;19.35;9.95;;;3.90;99.90;;;;;;5115742;28;20063;-79
2022/04/04 02:19:18;;;;;;;17.58;10.27;;;3.90;99.90;;;;;;5114831;28;20075;-79
2022/04/04 02:21:45;;;;;;;12.95;9.48;;;3.90;99.90;;;;;;5115160;28;20043;-79
2022/04/04 02:24:11;;;;;;;11.63;9.13;;;3.90;99.90;;;;;;5098435;28;20105;-79
2022/04/04 02:26:37;;;;;;;13.73;10.05;;;4.00;99.90;;;;;;5115693;28;20110;-79
2022/04/04 02:29:04;;;;;;;15.07;9.82;;;4.00;99.90;;;;;;5114528;28;20185;-79
2022/04/04 02:31:29;;;;;;;16.20;9.40;;;4.00;99.90;;;;;;5098186;28;20192;-78
2022/04/04 02:33:56;;;;;;;14.30;9.88;;;4.10;99.90;;;;;;5097635;28;20118;-79
2022/04/04 02:36:22;;;;;;;13.48;9.90;;;4.10;99.90;;;;;;5114881;28;20040;-79
2022/04/04 02:38:48;;;;;;;16.02;10.70;;;4.10;99.90;;;;;;5097255;28;20130;-78
2022/04/04 02:41:15;;;;;;;25.65;12.20;;;4.10;99.90;;;;;;5097536;28;20059;-79
2022/04/04 02:43:41;;;;;;;19.02;11.07;;;4.20;99.90;;;;;;5114863;28;20134;-78
2022/04/04 02:46:11;;;;;;;13.95;9.98;;;4.20;99.90;;;;;;5115707;28;20050;-79
2022/04/04 02:48:36;;;;;;;17.55;10.02;;;4.20;99.90;;;;;;5097353;28;20068;-78
2022/04/04 02:51:02;;;;;;;16.52;11.45;;;4.30;99.90;;;;;;5096019;28;20044;-79
2022/04/04 02:53:28;;;;;;;18.88;10.65;;;4.30;99.90;;;;;;5115837;28;20494;-78
2022/04/04 02:58:38;;;;;;;14.85;11.02;;;4.30;99.90;;;;;;5114805;28;20048;-78
2022/04/04 03:01:04;;;;;;;17.77;11.10;;;4.40;99.90;;;;;;5096180;28;20054;-78
2022/04/04 03:03:30;;;;;;;15.35;8.93;;;4.40;99.90;;;;;;5080489;28;20073;-79
2022/04/04 03:05:55;;;;;;;15.50;10.98;;;4.40;99.90;;;;;;5114216;28;20066;-78
2022/04/04 03:08:21;;;;;;;13.10;10.45;;;4.50;99.90;;;;;;5089250;28;20072;-79
2022/04/04 03:10:48;;;;;;;17.25;10.32;;;4.50;99.90;;;;;;5108347;28;20127;-78
2022/04/04 03:13:14;;;;;;;16.70;10.70;;;4.50;99.90;;;;;;5114345;28;20073;-78
2022/04/04 03:15:40;;;;;;;15.45;10.02;;;4.50;99.90;;;;;;5096749;28;20043;-77
2022/04/04 03:18:07;;;;;;;21.35;11.60;;;4.60;99.90;;;;;;5096339;28;20062;-78
2022/04/04 03:20:34;;;;;;;20.80;11.32;;;4.60;99.90;;;;;;5115056;28;20047;-78
2022/04/04 03:23:00;;;;;;;16.35;10.75;;;4.70;99.90;;;;;;5114931;28;20035;-78
2022/04/04 03:25:26;;;;;;;14.30;10.35;;;4.60;99.90;;;;;;5096133;28;20040;-78
2022/04/04 03:27:53;;;;;;;19.15;11.63;;;4.70;99.90;;;;;;5114040;28;20031;-78
2022/04/04 03:30:23;;;;;;;14.95;11.05;;;4.70;99.90;;;;;;5114495;28;20040;-78
2022/04/04 03:32:50;;;;;;;22.38;12.02;;;4.70;99.90;;;;;;5078983;28;20519;-77
2022/04/04 03:35:17;;;;;;;22.52;11.30;;;4.80;99.90;;;;;;5114591;28;20046;-78
2022/04/04 03:37:45;;;;;;;16.00;11.40;;;4.80;99.90;;;;;;5113466;28;20144;-78
2022/04/04 03:40:13;;;;;;;20.83;11.45;;;4.90;99.90;;;;;;5095778;28;20051;-78
2022/04/04 03:42:40;;;;;;;18.25;11.10;;;4.90;99.90;;;;;;5113970;28;20122;-78
2022/04/04 03:45:07;;;;;;;17.90;11.80;;;4.90;99.90;;;;;;5096578;28;20046;-78
2022/04/04 03:47:33;;;;;;;19.73;11.10;;;5.00;99.90;;;;;;5112633;28;20493;-78
2022/04/04 03:49:59;;;;;;;18.00;11.13;;;5.00;99.90;;;;;;5096340;28;20039;-78
2022/04/04 03:52:26;;;;;;;19.50;10.68;;;5.10;99.90;;;;;;5095396;28;20050;-78
2022/04/04 03:54:52;;;;;;;21.95;11.40;;;5.10;99.90;;;;;;5113774;28;20045;-77
2022/04/04 03:57:18;;;;;;;20.17;12.10;;;5.20;99.90;;;;;;5092493;28;20036;-78
2022/04/04 03:59:44;;;;;;;25.98;12.85;;;5.20;99.90;;;;;;5076255;28;20048;-79
2022/04/04 04:02:11;;;;;;;19.30;11.20;;;5.20;99.90;;;;;;5099404;28;20071;-79
2022/04/04 04:04:38;;;;;;;21.05;12.65;;;5.20;99.90;;;;;;5096342;28;20092;-79
2022/04/04 04:07:05;;;;;;;29.48;12.85;;;5.20;99.90;;;;;;5095065;28;20372;-78
2022/04/04 04:09:30;;;;;;;18.40;11.82;;;5.20;99.90;;;;;;5114342;28;20048;-78
2022/04/04 04:11:56;;;;;;;22.08;12.13;;;5.20;99.90;;;;;;5113637;28;20040;-78
2022/04/04 04:14:24;;;;;;;19.75;10.95;;;5.20;99.90;;;;;;5095583;28;20573;-78
2022/04/04 04:16:50;;;;;;;21.23;10.55;;;5.20;99.90;;;;;;5095843;28;20039;-79
2022/04/04 04:22:01;;;;;;;27.48;12.15;;;5.20;99.90;;;;;;5094900;28;20048;-79
2022/04/04 04:24:26;;;;;;;22.60;12.73;;;5.20;99.90;;;;;;5114102;28;20128;-79
2022/04/04 04:26:53;;;;;;;18.85;11.77;;;5.20;99.90;;;;;;5095410;28;20082;-78
2022/04/04 04:29:19;;;;;;;18.75;11.20;;;5.20;99.90;;;;;;5094920;28;20101;-80
2022/04/04 04:31:45;;;;;;;20.77;12.13;;;5.20;99.90;;;;;;5113594;28;20505;-80
2022/04/04 04:34:11;;;;;;;21.02;10.70;;;5.20;99.90;;;;;;5095483;28;20063;-80
2022/04/04 04:36:39;;;;;;;20.05;11.77;;;5.20;99.90;;;;;;5078023;28;20032;-79
2022/04/04 04:39:06;;;;;;;19.77;12.43;;;5.20;99.90;;;;;;5095690;28;20049;-79
2022/04/04 04:41:32;;;;;;;19.25;11.07;;;5.10;99.90;;;;;;5113443;28;20054;-80
2022/04/04 04:44:02;;;;;;;20.48;11.65;;;5.10;99.90;;;;;;5094876;28;20071;-80
2022/04/04 04:46:33;;;;;;;22.27;13.18;;;5.20;99.90;;;;;;5113416;28;20118;-80
2022/04/04 04:48:59;;;;;;;16.85;11.68;;;5.10;99.90;;;;;;5095645;28;20051;-79
2022/04/04 04:51:25;;;;;;;22.13;10.55;;;5.20;99.90;;;;;;5112535;28;20046;-80
2022/04/04 04:53:51;;;;;;;19.55;8.88;;;5.20;99.90;;;;;;5094021;28;20411;-78
2022/04/04 04:56:17;;;;;;;19.00;7.88;;;5.20;99.90;;;;;;5111892;28;20043;-79
2022/04/04 04:58:43;;;;;;;18.05;8.07;;;5.20;99.90;;;;;;5111688;28;20043;-79
2022/04/04 05:01:09;;;;;;;18.20;9.35;;;5.20;99.90;;;;;;5112726;28;20126;-80
2022/04/04 05:03:34;;;;;;;17.50;7.85;;;5.20;99.90;;;;;;5088905;28;20151;-78
2022/04/04 05:06:00;;;;;;;17.80;8.43;;;5.20;99.90;;;;;;5113609;28;20385;-80
2022/04/04 05:08:26;;;;;;;15.55;7.82;;;5.20;99.90;;;;;;5078614;28;20138;-79
2022/04/04 05:10:53;;;;;;;16.65;8.02;;;5.30;99.90;;;;;;5090853;28;20127;-81
2022/04/04 05:13:19;;;;;;;14.52;8.07;;;5.30;99.90;;;;;;5097824;28;20515;-81
2022/04/04 05:15:45;;;;;;;16.25;7.55;;;5.30;99.90;;;;;;5112912;28;20499;-83
2022/04/04 05:18:11;;;;;;;21.27;7.50;;;5.30;99.90;;;;;;5094340;28;20047;-80
2022/04/04 05:20:37;;;;;;;15.95;6.75;;;5.30;99.90;;;;;;5094100;28;20043;-81
2022/04/04 05:23:03;;;;;;;16.23;6.18;;;5.30;99.90;;;;;;5095979;28;20104;-81
2022/04/04 05:25:29;;;;;;;12.00;6.32;;;5.40;99.90;;;;;;5116109;28;20044;-80
2022/04/04 05:27:56;;;;;;;13.50;5.47;;;5.30;99.90;;;;;;5098074;28;20119;-82
2022/04/04 05:30:23;;;;;;;14.95;6.03;;;5.30;99.90;;;;;;5116924;28;20044;-81
2022/04/04 05:32:49;;;;;;;19.13;6.80;;;5.30;99.90;;;;;;5080495;28;20521;-82
2022/04/04 05:35:16;;;;;;;14.93;6.97;;;5.30;99.90;;;;;;5099083;28;20454;-81
2022/04/04 05:37:42;;;;;;;13.75;6.15;;;5.30;99.90;;;;;;5098138;28;20509;-81
2022/04/04 05:40:09;;;;;;;11.25;5.70;;;5.30;99.90;;;;;;5097637;28;20047;-82
2022/04/04 05:42:35;;;;;;;13.27;6.65;;;5.30;99.90;;;;;;5116857;28;20066;-81
2022/04/04 05:45:01;;;;;;;12.57;5.93;;;5.30;99.90;;;;;;5098719;28;20067;-81
2022/04/04 05:47:27;;;;;;;9.68;4.93;;;5.20;99.90;;;;;;5111407;28;20046;-82
2022/04/04 05:49:53;;;;;;;11.48;4.53;;;5.20;99.90;;;;;;5080343;28;20043;-82
2022/04/04 05:52:23;;;;;;;10.85;4.20;;;5.20;99.90;;;;;;5116665;28;20043;-83
2022/04/04 05:54:57;;;;;;;10.60;4.03;;;5.20;99.90;;;;;;5097974;28;20054;-82
2022/04/04 05:57:31;;;;;;;9.27;3.90;;;5.20;99.90;;;;;;5098674;28;20475;-81
2022/04/04 05:59:57;;;;;;;10.23;3.58;;;5.10;99.90;;;;;;5097650;28;20054;-81
2022/04/04 06:02:26;;;;;;;10.13;3.40;;;5.10;99.90;;;;;;5116722;28;20040;-81
2022/04/04 06:04:53;;;;;;;6.53;3.00;;;5.00;99.90;;;;;;5098563;28;20043;-81
2022/04/04 06:07:18;;;;;;;10.30;2.80;;;5.00;99.90;;;;;;5097552;28;20052;-80
2022/04/04 06:09:45;;;;;;;8.43;3.88;;;5.00;99.90;;;;;;5116565;28;20105;-81
2022/04/04 06:12:11;;;;;;;9.43;3.20;;;4.90;99.90;;;;;;5098336;28;20035;-83
2022/04/04 06:14:36;;;;;;;5.30;3.13;;;5.00;99.90;;;;;;5081008;28;20075;-84
2022/04/04 06:17:06;;;;;;;7.65;2.97;;;4.90;99.90;;;;;;5081448;28;20102;-82
2022/04/04 06:19:34;;;;;;;6.53;2.75;;;4.90;99.90;;;;;;5116314;28;20491;-81
2022/04/04 06:22:04;;;;;;;6.70;3.00;;;4.90;99.90;;;;;;5115479;28;20452;-83
2022/04/04 06:24:31;;;;;;;6.97;2.25;;;4.90;99.90;;;;;;5098108;28;20096;-82
2022/04/04 06:27:01;;;;;;;5.28;2.30;;;4.90;99.90;;;;;;5096264;28;20122;-83
2022/04/04 06:29:27;;;;;;;7.88;3.00;;;4.90;99.90;;;;;;5080125;28;20490;-80
2022/04/04 06:31:53;;;;;;;9.32;2.83;;;4.90;99.90;;;;;;5095772;28;20105;-80
2022/04/04 06:34:19;;;;;;;4.15;2.28;;;4.90;99.90;;;;;;5077742;28;20044;-81
2022/04/04 06:36:46;;;;;;;6.68;2.45;;;4.90;99.90;;;;;;5095333;28;20048;-79
2022/04/04 06:39:13;;;;;;;8.10;2.78;;;4.90;99.90;;;;;;5098026;28;20048;-82
2022/04/04 06:41:39;;;;;;;5.82;2.90;;;4.90;99.90;;;;;;5096738;28;20413;-80
2022/04/04 06:44:05;;;;;;;5.40;2.30;;;5.00;99.90;;;;;;5096448;28;20043;-81
2022/04/04 06:46:31;;;;;;;6.55;2.78;;;5.00;99.90;;;;;;5115774;28;20043;-82
2022/04/04 06:48:58;;;;;;;9.77;3.05;;;5.00;99.90;;;;;;5096925;28;20403;-81
2022/04/04 06:51:24;;;;;;;9.80;3.80;;;5.10;99.90;;;;;;5114921;28;20048;-85
2022/04/04 06:53:50;;;;;;;6.57;3.63;;;5.10;99.90;;;;;;5114977;28;20606;-82
2022/04/04 06:56:16;;;;;;;7.75;4.65;;;5.20;99.90;;;;;;5082145;28;20043;-84
2022/04/04 06:58:42;;;;;;;8.85;4.28;;;5.20;99.90;;;;;;5094923;28;20130;-83
2022/04/04 07:01:08;;;;;;;10.13;4.07;;;5.20;99.90;;;;;;5078711;28;20051;-85
2022/04/04 07:03:34;;;;;;;12.60;4.60;;;5.20;99.90;;;;;;5078425;28;20470;-82
2022/04/04 07:06:00;;;;;;;10.75;4.30;;;5.30;99.90;;;;;;5096122;28;20039;-85
2022/04/04 07:08:25;;;;;;;8.15;4.47;;;5.30;99.90;;;;;;5094506;28;20051;-84
2022/04/04 07:10:51;;;;;;;8.73;4.03;;;5.30;99.90;;;;;;5088364;28;20047;-83
2022/04/04 07:13:18;;;;;;;9.52;5.80;;;5.30;99.90;;;;;;5114667;28;20050;-83
2022/04/04 07:15:47;;;;;;;9.93;5.28;;;5.40;99.90;;;;;;5102505;28;20044;-84
2022/04/04 07:18:13;;;;;;;10.40;5.78;;;5.40;99.90;;;;;;5071036;28;20127;-83
2022/04/04 07:20:39;;;;;;;10.73;5.38;;;5.40;99.90;;;;;;5096536;28;20585;-84
2022/04/04 07:23:05;;;;;;;10.60;5.47;;;5.40;99.90;;;;;;5114679;28;20398;-83
2022/04/04 07:25:32;;;;;;;13.35;7.45;;;5.50;99.90;;;;;;5094399;28;20035;-84
2022/04/04 07:27:57;;;;;;;12.50;6.45;;;5.50;99.90;;;;;;5096144;28;20098;-83
2022/04/04 07:30:23;;;;;;;12.85;6.32;;;5.50;99.90;;;;;;5095771;28;20520;-83
2022/04/04 07:32:51;;;;;;;9.27;5.40;;;5.50;99.90;;;;;;5095216;28;20051;-82
2022/04/04 07:35:20;;;;;;;11.85;6.40;;;5.60;99.90;;;;;;5075506;28;20035;-85
2022/04/04 07:37:47;;;;;;;12.00;6.63;;;5.60;99.90;;;;;;5096770;28;20043;-85
2022/04/04 07:40:16;;;;;;;11.13;6.57;;;5.60;99.90;;;;;;5078326;28;20047;-84
2022/04/04 07:42:44;;;;;;;11.27;6.53;;;5.60;99.90;;;;;;5114430;28;20043;-83
2022/04/04 07:45:13;;;;;;;11.85;6.10;;;5.70;99.90;;;;;;5094926;28;20070;-84
2022/04/04 07:47:40;;;;;;;14.93;6.97;;;5.70;99.90;;;;;;5114222;28;20044;-85
2022/04/04 07:50:08;;;;;;;11.63;6.45;;;5.70;99.90;;;;;;5114332;28;20048;-86
2022/04/04 07:52:34;;;;;;;12.98;7.28;;;5.70;99.90;;;;;;5077740;28;20125;-84
2022/04/04 07:55:00;;;;;;;10.68;5.70;;;5.80;99.90;;;;;;5099875;28;20060;-84
2022/04/04 07:57:26;;;;;;;14.13;6.50;;;5.80;99.90;;;;;;5093798;28;20499;-82
2022/04/04 07:59:52;;;;;;;8.85;5.57;;;5.80;99.90;;;;;;5070448;28;20082;-86
2022/04/04 08:02:19;;;;;;;10.85;5.93;;;5.80;99.90;;;;;;5100835;28;20137;-84
2022/04/04 08:04:45;;;;;;;11.07;5.85;;;5.80;99.90;;;;;;5089133;28;20113;-83
2022/04/04 08:07:12;;;;;;;10.98;4.80;;;5.80;99.90;;;;;;5110814;28;20048;-82
2022/04/04 08:09:38;;;;;;;16.70;6.18;;;5.80;99.90;;;;;;5078943;28;20048;-84
2022/04/04 08:12:04;;;;;;;16.88;7.47;;;5.80;99.90;;;;;;5087419;28;20488;-86
2022/04/04 08:14:30;;;;;;;12.40;5.85;;;5.90;99.90;;;;;;5113198;28;20051;-83
2022/04/04 08:16:56;;;;;;;11.93;5.63;;;5.90;99.90;;;;;;5112134;28;20055;-84
2022/04/04 08:19:21;;;;;;;11.77;5.03;;;5.90;99.90;;;;;;5095636;28;20051;-84
2022/04/04 08:21:47;;;;;;;8.35;4.95;;;5.90;99.90;;;;;;5065699;28;20049;-84
2022/04/04 08:24:14;;;;;;;13.20;4.90;;;5.90;99.90;;;;;;5088932;28;20052;-84
2022/04/04 08:26:41;;;;;;;12.85;4.85;;;5.90;99.90;;;;;;5067981;28;20127;-83
2022/04/04 08:29:11;;;;;;;10.57;4.55;;;6.00;99.90;;;;;;5084759;28;20040;-85
2022/04/04 08:31:39;;;;;;;10.90;4.20;;;6.00;99.90;;;;;;5079514;28;20047;-82
2022/04/04 08:34:05;;;;;;;6.00;3.67;;;6.00;99.90;;;;;;5093360;28;20051;-84
2022/04/04 08:36:31;;;;;;;8.93;3.58;;;6.00;99.90;;;;;;5107051;28;20036;-83
2022/04/04 08:38:57;;;;;;;7.35;4.30;;;6.00;99.90;;;;;;5113827;28;20104;-81
2022/04/04 08:41:25;;;;;;;8.63;4.13;;;6.00;99.90;;;;;;5092758;28;20046;-82
2022/04/04 08:43:52;;;;;;;6.75;3.80;;;6.00;99.90;;;;;;5095734;28;20122;-84
2022/04/04 08:46:19;;;;;;;7.95;3.55;;;6.00;99.90;;;;;;5066625;28;20044;-83
2022/04/04 08:48:44;;;;;;;7.85;3.50;;;6.10;99.90;;;;;;5074599;28;20044;-82
2022/04/04 08:51:10;;;;;;;3.78;3.13;;;6.10;99.90;;;;;;5081783;28;20051;-84
2022/04/04 08:53:38;;;;;;;7.95;3.65;;;6.10;99.90;;;;;;5113683;28;20051;-84
2022/04/04 08:56:06;;;;;;;6.78;4.15;;;6.10;99.90;;;;;;5093962;28;20040;-83
2022/04/04 08:58:33;;;;;;;5.00;2.67;;;6.10;99.90;;;;;;5115666;28;20096;-83
2022/04/04 09:01:00;;;;;;;5.25;2.63;;;6.20;99.90;;;;;;5099443;28;20483;-84
2022/04/04 09:03:30;;;;;;;7.13;2.80;;;6.20;99.90;;;;;;5116659;28;20522;-82
2022/04/04 09:06:01;;;;;;;4.65;2.53;;;6.20;99.90;;;;;;5117580;28;20510;-83
2022/04/04 09:08:44;;;;;;;7.60;3.15;;;6.20;99.90;;;;;;5099354;28;20067;-81
2022/04/04 09:11:14;;;;;;;6.00;2.10;;;6.20;99.90;;;;;;5064721;28;20069;-84
2022/04/04 09:13:43;;;;;;;9.02;2.90;;;6.30;99.90;;;;;;5099563;28;20403;-81
2022/04/04 09:16:10;;;;;;;8.93;2.70;;;6.30;99.90;;;;;;5116771;28;20040;-83
2022/04/04 09:18:45;;;;;;;3.53;2.25;;;6.30;99.90;;;;;;5081103;28;20057;-82
2022/04/04 09:21:18;;;;;;;9.48;3.38;;;6.30;99.90;;;;;;5096930;28;20036;-82
2022/04/04 09:23:58;;;;;;;7.38;2.55;;;6.40;99.90;;;;;;5079401;28;20070;-84
2022/04/04 09:26:44;;;;;;;4.22;1.75;;;6.30;99.90;;;;;;5098950;28;20070;-83
2022/04/04 09:29:19;;;;;;;8.35;3.20;;;6.40;99.90;;;;;;5094151;28;20051;-80
2022/04/04 09:32:09;;;;;;;8.88;2.50;;;6.40;99.90;;;;;;5049379;28;20541;-83
2022/04/04 09:35:08;;;;;;;5.55;2.30;;;6.40;99.90;;;;;;5097020;28;20118;-85
2022/04/04 09:37:36;;;;;;;6.53;2.65;;;6.40;99.90;;;;;;5077919;28;20482;-84
2022/04/04 09:40:15;;;;;;;5.35;2.47;;;6.40;99.90;;;;;;5091777;28;20052;-84
2022/04/04 09:42:56;;;;;;;5.32;2.20;;;6.40;99.90;;;;;;5097514;28;20490;-83
2022/04/04 09:45:26;;;;;;;8.75;2.92;;;6.50;99.90;;;;;;5097520;28;20043;-83
2022/04/04 09:48:00;;;;;;;7.45;2.28;;;6.50;99.90;;;;;;5096271;28;20130;-82
2022/04/04 09:50:33;;;;;;;7.15;2.05;;;6.50;99.90;;;;;;5113784;28;20104;-82
2022/04/04 09:53:00;;;;;;;6.40;2.22;;;6.50;99.90;;;;;;5097935;28;20126;-85
2022/04/04 09:55:31;;;;;;;7.20;2.42;;;6.50;99.90;;;;;;5096926;28;20040;-82
2022/04/04 09:57:59;;;;;;;11.25;2.35;;;6.60;99.90;;;;;;5082540;28;20052;-83
2022/04/04 10:00:26;;;;;;;4.90;1.98;;;6.60;99.90;;;;;;5109177;28;20499;-82
2022/04/04 10:02:54;;;;;;;9.50;2.67;;;6.60;99.90;;;;;;5081041;28;20044;-82
2022/04/04 10:05:21;;;;;;;5.93;2.42;;;6.70;99.90;;;;;;5059803;28;20047;-82
2022/04/04 10:07:50;;;;;;;7.07;2.17;;;6.70;99.90;;;;;;5108453;28;20036;-82
2022/04/04 10:10:17;;;;;;;6.22;2.40;;;6.70;99.90;;;;;;5115378;28;20051;-83
2022/04/04 10:12:44;;;;;;;7.57;2.25;;;6.70;99.90;;;;;;5115190;28;20044;-83
2022/04/04 10:15:11;;;;;;;4.97;2.30;;;6.70;99.90;;;;;;5096580;28;20045;-81
2022/04/04 10:17:38;;;;;;;10.82;2.20;;;6.80;99.90;;;;;;5092932;28;20036;-81
2022/04/04 10:20:05;;;;;;;11.80;2.83;;;6.80;99.90;;;;;;5112119;28;20044;-84
2022/04/04 10:22:31;;;;;;;10.63;2.47;;;6.80;99.90;;;;;;5094258;28;20040;-82
2022/04/04 10:24:59;;;;;;;3.88;1.98;;;6.80;99.90;;;;;;5077777;28;20036;-82
2022/04/04 10:27:25;;;;;;;3.72;1.58;;;6.80;99.90;;;;;;5083434;28;20044;-83
2022/04/04 10:30:01;;;;;;;3.85;1.95;;;6.80;99.90;;;;;;5077470;28;20104;-85
2022/04/04 10:32:28;;;;;;;10.00;2.20;;;6.90;99.90;;;;;;5093589;28;20125;-83
2022/04/04 10:34:58;;;;;;;6.25;2.13;;;6.90;99.90;;;;;;5104424;28;20177;-85
2022/04/04 10:37:31;;;;;;;3.80;1.80;;;6.90;99.90;;;;;;5097661;28;20051;-86
2022/04/04 10:39:56;;;;;;;10.38;2.20;;;6.90;99.90;;;;;;5096467;28;21300;-83
2022/04/04 10:42:41;;;;;;;7.07;2.17;;;7.00;99.90;;;;;;5115066;28;20096;-83
2022/04/04 10:45:12;;;;;;;13.23;2.33;;;7.00;99.90;;;;;;5097053;28;20394;-82
2022/04/04 10:47:42;;;;;;;3.35;1.35;;;7.00;99.90;;;;;;5097319;28;20043;-83
2022/04/04 10:50:18;;;;;;;4.65;1.77;;;7.10;99.90;;;;;;5114204;28;20050;-83
2022/04/04 10:52:44;;;;;;;3.15;1.27;;;7.10;99.90;;;;;;5097265;28;20058;-81
2022/04/04 10:55:40;;;;;;;3.95;1.73;;;7.20;99.90;;;;;;5092685;28;20068;-86
2022/04/04 10:58:09;;;;;;;6.70;1.58;;;7.20;99.90;;;;;;5097431;28;20122;-86
2022/04/04 11:00:56;;;;;;;4.35;1.02;;;8.20;99.90;;;;;;5114149;28;20042;-83
2022/04/04 11:03:32;;;;;;;5.80;1.08;;;7.20;99.90;;;;;;5091737;28;20036;-85
2022/04/04 11:09:22;;;;;;;3.65;1.00;;;7.30;99.90;;;;;;5093566;28;20079;-84
2022/04/04 11:12:11;;;;;;;2.22;0.85;;;7.30;99.90;;;;;;5095026;28;20055;-84
2022/04/04 11:14:39;;;;;;;3.10;1.58;;;7.40;99.90;;;;;;5093748;28;20123;-85
2022/04/04 11:17:23;;;;;;;2.80;1.20;;;7.40;99.90;;;;;;5092871;28;20056;-84
2022/04/04 11:20:21;;;;;;;5.13;1.00;;;7.40;99.90;;;;;;5093244;28;20051;-83
2022/04/04 11:22:51;;;;;;;2.47;0.95;;;7.50;99.90;;;;;;5073536;28;20286;-84
2022/04/04 11:25:19;;;;;;;3.15;0.80;;;7.50;99.90;;;;;;5093921;28;20518;-82
2022/04/04 11:27:48;;;;;;;1.00;0.77;;;7.60;99.90;;;;;;5110342;28;20453;-84
2022/04/04 11:30:20;;;;;;;1.23;0.68;;;7.60;99.90;;;;;;5113671;28;20035;-84
2022/04/04 11:32:49;;;;;;;2.42;0.77;;;7.70;99.90;;;;;;5114418;28;20048;-82
2022/04/04 11:35:20;;;;;;;2.65;0.75;;;7.70;99.90;;;;;;5112504;28;20123;-83
2022/04/04 11:37:49;;;;;;;2.35;0.70;;;7.70;99.90;;;;;;5095446;28;20499;-82
2022/04/04 11:40:25;;;;;;;0.90;0.47;;;7.70;99.90;;;;;;5114289;28;20605;-84
2022/04/04 11:42:52;;;;;;;1.85;0.80;;;7.70;99.90;;;;;;5114661;28;20040;-86
2022/04/04 11:45:27;;;;;;;2.47;0.70;;;7.80;99.90;;;;;;5095277;28;20118;-85
2022/04/04 11:48:06;;;;;;;1.17;0.50;;;7.80;99.90;;;;;;5096082;28;20131;-84
2022/04/04 11:50:37;;;;;;;1.88;0.68;;;7.80;99.90;;;;;;5114477;28;20040;-83
2022/04/04 11:53:25;;;;;;;0.40;0.40;;;7.80;99.90;;;;;;5113284;28;20062;-82
2022/04/04 11:56:02;;;;;;;1.33;0.50;;;7.90;99.90;;;;;;5095972;28;20513;-83
2022/04/04 11:58:29;;;;;;;2.13;0.63;;;7.90;99.90;;;;;;5095447;28;20183;-84
2022/04/04 12:01:04;;;;;;;1.30;0.57;;;7.90;99.90;;;;;;5113261;28;20046;-84
2022/04/04 12:03:32;;;;;;;1.05;0.73;;;7.90;99.90;;;;;;5094463;28;20039;-84
2022/04/04 12:06:05;;;;;;;0.70;0.50;;;7.90;99.90;;;;;;5106538;28;20110;-82
2022/04/04 12:08:32;;;;;;;2.08;0.52;;;7.90;99.90;;;;;;5099683;28;20043;-83
2022/04/04 12:10:58;;;;;;;0.77;0.63;;;8.00;99.90;;;;;;5113843;28;20039;-82
2022/04/04 12:13:24;;;;;;;2.03;0.77;;;8.00;99.90;;;;;;5112340;28;20075;-82
2022/04/04 12:15:53;;;;;;;1.75;0.73;;;8.00;99.90;;;;;;5113935;28;20085;-81
2022/04/04 12:18:24;;;;;;;0.73;0.70;;;8.00;99.90;;;;;;5112118;28;20039;-83
2022/04/04 12:20:54;;;;;;;0.55;0.55;;;8.10;99.90;;;;;;5111462;28;20040;-84
2022/04/04 12:26:12;;;;;;;1.17;0.60;;;8.10;99.90;;;;;;5094989;28;20051;-83
2022/04/04 12:28:41;;;;;;;2.60;1.20;;;8.20;99.90;;;;;;5091865;28;20534;-84
2022/04/04 12:31:15;;;;;;;1.33;0.73;;;8.10;99.90;;;;;;5113034;28;20398;-83
2022/04/04 12:33:42;;;;;;;1.00;0.87;;;8.20;99.90;;;;;;5091462;28;20055;-85
2022/04/04 12:36:08;;;;;;;0.65;0.65;;;8.20;99.90;;;;;;5075478;28;20036;-84
2022/04/04 12:38:37;;;;;;;2.15;0.80;;;8.30;99.90;;;;;;5110245;28;20558;-83
2022/04/04 12:41:08;;;;;;;0.90;0.65;;;8.30;99.90;;;;;;5089099;28;20052;-86
2022/04/04 12:43:35;;;;;;;1.23;0.90;;;8.30;99.90;;;;;;5095638;28;20082;-83
2022/04/04 12:46:02;;;;;;;1.13;0.73;;;8.30;99.90;;;;;;5113479;28;20047;-84
2022/04/04 12:48:36;;;;;;;2.15;0.77;;;8.40;99.90;;;;;;5094985;28;20180;-84
2022/04/04 12:51:03;;;;;;;1.70;0.98;;;8.40;99.90;;;;;;5113160;28;20558;-83
2022/04/04 12:53:29;;;;;;;1.10;1.00;;;8.40;99.90;;;;;;5113284;28;20079;-85
2022/04/04 12:56:11;;;;;;;1.98;1.20;;;8.50;99.90;;;;;;5094590;28;20040;-82
2022/04/04 12:58:37;;;;;;;4.90;1.65;;;8.50;99.90;;;;;;5112369;28;20051;-83
2022/04/04 13:01:16;;;;;;;1.63;0.93;;;8.60;99.90;;;;;;5095471;28;20172;-82
2022/04/04 13:03:53;;;;;;;2.42;1.65;;;8.60;99.90;;;;;;5075471;28;20052;-83
2022/04/04 13:06:20;;;;;;;2.55;1.30;;;8.60;99.90;;;;;;5113110;28;20051;-84